EDT,Max TemperatureF,Mean TemperatureF,Min TemperatureF,Max Dew PointF,MeanDew PointF,Min DewpointF,Max Humidity, Mean Humidity, Min Humidity, Max Sea Level PressureIn, Mean Sea Level PressureIn, Min Sea Level PressureIn, Max VisibilityMiles, Mean VisibilityMiles, Min VisibilityMiles, Max Wind SpeedMPH, Mean Wind SpeedMPH, Max Gust SpeedMPH,PrecipitationIn, CloudCover, Events, WindDirDegrees
2013-6-1,87,80,73,76,72,70,94,85,59,30.03,29.99,29.95,10,9,1,13,8,17,0.38,5,Rain,87
2013-6-2,88,81,73,75,73,72,94,85,61,29.99,29.96,29.91,10,9,0,15,7,18,0.00,3,Fog,142
2013-6-3,82,78,74,75,73,70,94,84,69,29.99,29.94,29.91,10,8,0,16,7,20,1.00,6,Fog-Rain,188
2013-6-4,85,81,76,74,72,69,88,78,65,30.01,29.98,29.94,10,10,10,21,8,24,T,6,,145
2013-6-5,86,80,74,73,72,69,94,81,61,30.00,29.93,29.88,10,10,7,20,10,29,0.33,5,Rain,111
2013-6-6,81,78,75,75,73,71,94,88,79,29.85,29.74,29.69,10,7,0,32,18,40,1.66,7,Fog-Rain,174
2013-6-7,85,81,77,74,73,72,85,78,74,29.96,29.90,29.80,10,10,10,13,8,17,0.00,2,,227
2013-6-8,87,80,72,77,73,70,93,87,70,30.09,30.03,29.97,10,7,0,23,9,30,2.32,5,Fog-Rain,141
2013-6-9,89,81,73,75,73,70,94,84,59,30.08,30.06,30.01,10,9,2,14,7,18,0.16,4,Rain,108
2013-6-10,89,82,75,75,73,70,94,79,63,30.08,30.05,30.01,10,10,9,14,6,17,T,2,,130
2013-6-11,91,84,76,77,73,70,94,77,56,30.08,30.05,30.01,10,10,3,13,5,16,0.54,1,Rain,88
2013-6-12,93,83,73,75,72,69,88,72,52,30.08,30.05,30.01,10,10,10,21,6,25,T,1,,27
2013-6-13,89,83,76,75,74,73,94,75,63,30.05,30.00,29.93,10,10,10,16,8,20,0.00,3,,257
2013-6-14,88,85,81,74,73,71,79,70,59,29.96,29.93,29.89,10,10,10,16,10,20,0.00,2,,261
2013-6-15,88,83,78,75,74,71,85,74,63,30.04,29.99,29.93,10,10,10,13,8,17,0.00,3,,284
2013-6-16,90,84,77,77,75,74,94,78,68,30.07,30.05,30.02,10,10,10,14,6,17,0.00,3,,176
2013-6-17,91,84,77,76,74,69,91,72,55,30.06,30.03,29.99,10,10,10,13,6,17,0.00,1,,247
2013-6-18,90,83,76,76,74,73,94,73,59,30.06,30.02,29.97,10,10,10,13,6,20,0.00,1,,234
2013-6-19,91,84,76,77,74,70,91,73,59,30.03,30.01,29.98,10,10,10,22,5,26,T,2,Rain,196
2013-6-20,90,82,74,75,72,68,87,73,53,30.09,30.05,30.01,10,10,10,16,7,22,0.00,2,,147
2013-6-21,91,83,74,74,71,69,93,74,52,30.10,30.07,30.03,10,10,10,16,6,18,0.00,1,,121
2013-6-22,90,82,73,73,70,68,93,71,50,30.11,30.07,30.04,10,10,10,14,7,23,0.00,0,,101
2013-6-23,92,83,73,74,73,70,94,81,52,30.13,30.09,30.06,10,9,1,17,7,22,0.48,3,Rain,78
2013-6-24,92,84,75,75,73,68,94,75,47,30.17,30.11,30.06,10,10,10,14,6,21,T,2,Rain,126
2013-6-25,93,84,74,75,73,70,94,75,49,30.14,30.08,30.02,10,10,8,24,7,29,0.13,2,Rain,107
2013-6-26,90,82,74,75,73,68,94,77,61,30.07,30.04,30.01,10,10,10,21,7,28,T,1,Rain,135
2013-6-27,90,81,72,74,72,70,87,73,59,30.04,30.00,29.95,10,10,10,13,6,16,0.00,1,,216
2013-6-28,89,82,75,76,74,72,94,78,63,29.98,29.94,29.86,10,9,1,17,7,21,0.82,3,Rain,222
2013-6-29,90,83,76,75,74,72,74,74,63,29.88,29.85,29.81,10,9,2,22,11,32,0.28,3,Rain,228
2013-6-30,89,82,75,78,74,72,91,78,65,29.89,29.85,29.81,10,9,2,25,12,36,0.64,3,Rain,188